PWSweather.com
Personal Weather Stations
Station Observations
ZYBORSKI
Fromes HillGB hr8 1

Fromes HillGB hr8 1

Lat: 52.1172558, Lon: -2.4749163

Elevation: 0

Station Type: FineOffset

High Low Average
Temperature 45.0°F7.2°F 36.0°F2.2°F 39.1°F3.9°F
Dew Point 38.0°F3.3°F 30.9°F-0.6°F 35.1°F1.7°F
Winds 24.4 mph W39.3 mph W Calm Calm 6.2 mph 10.0 mph
Wind Gusts 39.6 mph63.7 mph -- 16.0 mph25.7 mph
Humidity 99% 60% 87%
Pressure 30.16 in1021.30 in 29.78 in1008.50 in -
Precipitation 0.00 in0.00 in - -
Hour Temp Dew Point Humidity Winds Wind Gusts Pressure Precip Precip Rate Daily Precip Total
12:00 AM 37.2°F2.9°C 37.0°F2.8°C 99% 2.2 mph W3.5 kmh W 9.2 mph14.8 kmh 29.79 in1008.8 mb 0.00 in0.0 mm 0.00 in/hr0.0 mm/hr 0.00 in0.0 mm
12:15 AM 37.4°F3.0°C 37.1°F2.8°C 99% 5.4 mph W8.7 kmh W 11.4 mph18.3 kmh 29.78 in1008.5 mb 0.00 in0.0 mm 0.00 in/hr0.0 mm/hr 0.00 in0.0 mm
12:30 AM 37.4°F3.0°C 37.1°F2.8°C 99% 3.8 mph W6.1 kmh W 9.8 mph15.8 kmh 29.79 in1008.8 mb 0.00 in0.0 mm 0.00 in/hr0.0 mm/hr 0.00 in0.0 mm
12:45 AM 36.9°F2.7°C 36.6°F2.6°C 99% Calm Calm 5.4 mph8.7 kmh 29.80 in1009.1 mb 0.00 in0.0 mm 0.00 in/hr0.0 mm/hr 0.00 in0.0 mm
01:00 AM 37.0°F2.8°C 36.8°F2.7°C 99% Calm Calm 4.5 mph7.2 kmh 29.80 in1009.1 mb 0.00 in0.0 mm 0.00 in/hr0.0 mm/hr 0.00 in0.0 mm
01:15 AM 37.2°F2.9°C 37.0°F2.8°C 99% Calm Calm 5.4 mph8.7 kmh 29.80 in1009.1 mb 0.00 in0.0 mm 0.00 in/hr0.0 mm/hr 0.00 in0.0 mm
01:30 AM 37.2°F2.9°C 37.0°F2.8°C 99% Calm Calm 6.0 mph9.7 kmh 29.79 in1008.8 mb 0.00 in0.0 mm 0.00 in/hr0.0 mm/hr 0.00 in0.0 mm
01:45 AM 37.8°F3.2°C 37.5°F3.1°C 99% 2.2 mph WSW3.5 kmh WSW 9.8 mph15.8 kmh 29.80 in1009.1 mb 0.00 in0.0 mm 0.00 in/hr0.0 mm/hr 0.00 in0.0 mm
02:00 AM 37.8°F3.2°C 37.5°F3.1°C 99% Calm Calm 9.8 mph15.8 kmh 29.80 in1009.1 mb 0.00 in0.0 mm 0.00 in/hr0.0 mm/hr 0.00 in0.0 mm
02:15 AM 37.8°F3.2°C 37.5°F3.1°C 99% Calm Calm 4.5 mph7.2 kmh 29.80 in1009.1 mb 0.00 in0.0 mm 0.00 in/hr0.0 mm/hr 0.00 in0.0 mm
02:30 AM 37.8°F3.2°C 37.5°F3.1°C 99% Calm Calm 3.1 mph5.0 kmh 29.80 in1009.1 mb 0.00 in0.0 mm 0.00 in/hr0.0 mm/hr 0.00 in0.0 mm
02:45 AM 37.9°F3.3°C 37.7°F3.2°C 99% Calm Calm 8.3 mph13.4 kmh 29.81 in1009.5 mb 0.00 in0.0 mm 0.00 in/hr0.0 mm/hr 0.00 in0.0 mm
03:00 AM 37.9°F3.3°C 37.7°F3.2°C 99% 0.7 mph WSW1.1 kmh WSW 13.6 mph21.9 kmh 29.81 in1009.5 mb 0.00 in0.0 mm 0.00 in/hr0.0 mm/hr 0.00 in0.0 mm
03:15 AM 38.1°F3.4°C 37.9°F3.3°C 99% 3.1 mph W5.0 kmh W 11.4 mph18.3 kmh 29.80 in1009.1 mb 0.00 in0.0 mm 0.00 in/hr0.0 mm/hr 0.00 in0.0 mm
03:30 AM 38.3°F3.5°C 38.0°F3.3°C 99% 4.5 mph WSW7.2 kmh WSW 17.4 mph28.0 kmh 29.80 in1009.1 mb 0.00 in0.0 mm 0.00 in/hr0.0 mm/hr 0.00 in0.0 mm
03:45 AM 38.1°F3.4°C 37.9°F3.3°C 99% 0.7 mph WSW1.1 kmh WSW 13.6 mph21.9 kmh 29.80 in1009.1 mb 0.00 in0.0 mm 0.00 in/hr0.0 mm/hr 0.00 in0.0 mm
04:00 AM 37.8°F3.2°C 37.5°F3.1°C 99% Calm Calm 6.0 mph9.7 kmh 29.80 in1009.1 mb 0.00 in0.0 mm 0.00 in/hr0.0 mm/hr 0.00 in0.0 mm
04:15 AM 37.4°F3.0°C 37.1°F2.8°C 99% Calm Calm 3.8 mph6.1 kmh 29.79 in1008.8 mb 0.00 in0.0 mm 0.00 in/hr0.0 mm/hr 0.00 in0.0 mm
04:30 AM 37.2°F2.9°C 37.0°F2.8°C 99% Calm Calm -- 29.80 in1009.1 mb 0.00 in0.0 mm 0.00 in/hr0.0 mm/hr 0.00 in0.0 mm
04:45 AM 37.4°F3.0°C 36.4°F2.4°C 96% Calm Calm 0.7 mph1.1 kmh 29.80 in1009.1 mb 0.00 in0.0 mm 0.00 in/hr0.0 mm/hr 0.00 in0.0 mm
05:00 AM 37.0°F2.8°C 35.5°F1.9°C 94% Calm Calm -- 29.81 in1009.5 mb 0.00 in0.0 mm 0.00 in/hr0.0 mm/hr 0.00 in0.0 mm
05:15 AM 37.0°F2.8°C 35.7°F2.1°C 95% 0.7 mph SSW1.1 kmh SSW 5.4 mph8.7 kmh 29.80 in1009.1 mb 0.00 in0.0 mm 0.00 in/hr0.0 mm/hr 0.00 in0.0 mm
05:30 AM 37.2°F2.9°C 36.2°F2.3°C 96% Calm Calm 0.7 mph1.1 kmh 29.80 in1009.1 mb 0.00 in0.0 mm 0.00 in/hr0.0 mm/hr 0.00 in0.0 mm
05:45 AM 37.4°F3.0°C 36.6°F2.6°C 97% 0.7 mph SW1.1 kmh SW 9.2 mph14.8 kmh 29.80 in1009.1 mb 0.00 in0.0 mm 0.00 in/hr0.0 mm/hr 0.00 in0.0 mm
06:00 AM 37.4°F3.0°C 37.1°F2.8°C 99% 0.7 mph SW1.1 kmh SW 5.4 mph8.7 kmh 29.80 in1009.1 mb 0.00 in0.0 mm 0.00 in/hr0.0 mm/hr 0.00 in0.0 mm
06:15 AM 37.0°F2.8°C 36.8°F2.7°C 99% 0.7 mph WSW1.1 kmh WSW 6.9 mph11.1 kmh 29.81 in1009.5 mb 0.00 in0.0 mm 0.00 in/hr0.0 mm/hr 0.00 in0.0 mm
06:30 AM 37.2°F2.9°C 37.0°F2.8°C 99% 15.2 mph W24.5 kmh W 31.1 mph50.1 kmh 29.82 in1009.8 mb 0.00 in0.0 mm 0.00 in/hr0.0 mm/hr 0.00 in0.0 mm
06:45 AM 36.0°F2.2°C 35.7°F2.1°C 99% 9.2 mph W14.8 kmh W 33.6 mph54.1 kmh 29.82 in1009.8 mb 0.00 in0.0 mm 0.00 in/hr0.0 mm/hr 0.00 in0.0 mm
07:00 AM 36.3°F2.4°C 36.1°F2.3°C 99% 9.8 mph WSW15.8 kmh WSW 20.6 mph33.2 kmh 29.83 in1010.2 mb 0.00 in0.0 mm 0.00 in/hr0.0 mm/hr 0.00 in0.0 mm
07:15 AM 37.0°F2.8°C 36.8°F2.7°C 99% 13.0 mph WSW20.9 kmh WSW 20.6 mph33.2 kmh 29.84 in1010.5 mb 0.00 in0.0 mm 0.00 in/hr0.0 mm/hr 0.00 in0.0 mm
07:30 AM 36.9°F2.7°C 36.6°F2.6°C 99% 11.4 mph W18.3 kmh W 22.8 mph36.7 kmh 29.84 in1010.5 mb 0.00 in0.0 mm 0.00 in/hr0.0 mm/hr 0.00 in0.0 mm
07:45 AM 37.0°F2.8°C 35.7°F2.1°C 95% 9.2 mph W14.8 kmh W 20.6 mph33.2 kmh 29.85 in1010.8 mb 0.00 in0.0 mm 0.00 in/hr0.0 mm/hr 0.00 in0.0 mm
08:00 AM 36.9°F2.7°C 35.8°F2.1°C 96% 7.6 mph WSW12.2 kmh WSW 19.0 mph30.6 kmh 29.86 in1011.2 mb 0.00 in0.0 mm 0.00 in/hr0.0 mm/hr 0.00 in0.0 mm
08:15 AM 37.4°F3.0°C 35.3°F1.8°C 92% 5.4 mph W8.7 kmh W 19.0 mph30.6 kmh 29.87 in1011.5 mb 0.00 in0.0 mm 0.00 in/hr0.0 mm/hr 0.00 in0.0 mm
08:30 AM 37.8°F3.2°C 34.2°F1.2°C 87% 7.6 mph WNW12.2 kmh WNW 21.3 mph34.3 kmh 29.88 in1011.9 mb 0.00 in0.0 mm 0.00 in/hr0.0 mm/hr 0.00 in0.0 mm
08:45 AM 38.3°F3.5°C 34.5°F1.4°C 86% 11.4 mph WSW18.3 kmh WSW 32.7 mph52.6 kmh 29.89 in1012.2 mb 0.00 in0.0 mm 0.00 in/hr0.0 mm/hr 0.00 in0.0 mm
09:00 AM 38.5°F3.6°C 34.4°F1.3°C 85% 14.5 mph WSW23.3 kmh WSW 24.4 mph39.3 kmh 29.89 in1012.2 mb 0.00 in0.0 mm 0.00 in/hr0.0 mm/hr 0.00 in0.0 mm
09:15 AM 38.8°F3.8°C 34.1°F1.2°C 83% 13.6 mph W21.9 kmh W 28.2 mph45.4 kmh 29.90 in1012.5 mb 0.00 in0.0 mm 0.00 in/hr0.0 mm/hr 0.00 in0.0 mm
09:30 AM 39.2°F4.0°C 33.6°F0.9°C 80% 11.4 mph WSW18.3 kmh WSW 25.9 mph41.7 kmh 29.91 in1012.9 mb 0.00 in0.0 mm 0.00 in/hr0.0 mm/hr 0.00 in0.0 mm
09:45 AM 39.2°F4.0°C 33.6°F0.9°C 80% 17.4 mph W28.0 kmh W 32.0 mph51.5 kmh 29.92 in1013.2 mb 0.00 in0.0 mm 0.00 in/hr0.0 mm/hr 0.00 in0.0 mm
10:00 AM 38.8°F3.8°C 33.2°F0.7°C 80% 20.6 mph W33.2 kmh W 32.7 mph52.6 kmh 29.93 in1013.5 mb 0.00 in0.0 mm 0.00 in/hr0.0 mm/hr 0.00 in0.0 mm
10:15 AM 39.7°F4.3°C 34.4°F1.3°C 81% 22.8 mph W36.7 kmh W 34.2 mph55.0 kmh 29.93 in1013.5 mb 0.00 in0.0 mm 0.00 in/hr0.0 mm/hr 0.00 in0.0 mm
10:30 AM 40.1°F4.5°C 36.0°F2.2°C 85% 13.0 mph W20.9 kmh W 32.7 mph52.6 kmh 29.94 in1013.9 mb 0.00 in0.0 mm 0.00 in/hr0.0 mm/hr 0.00 in0.0 mm
10:45 AM 40.6°F4.8°C 35.6°F2.0°C 82% 15.2 mph W24.5 kmh W 32.0 mph51.5 kmh 29.94 in1013.9 mb 0.00 in0.0 mm 0.00 in/hr0.0 mm/hr 0.00 in0.0 mm
11:00 AM 40.8°F4.9°C 34.2°F1.2°C 77% 19.0 mph W30.6 kmh W 39.6 mph63.7 kmh 29.95 in1014.2 mb 0.00 in0.0 mm 0.00 in/hr0.0 mm/hr 0.00 in0.0 mm
11:15 AM 41.0°F5.0°C 34.4°F1.3°C 77% 18.3 mph W29.5 kmh W 34.2 mph55.0 kmh 29.97 in1014.9 mb 0.00 in0.0 mm 0.00 in/hr0.0 mm/hr 0.00 in0.0 mm
11:30 AM 41.2°F5.1°C 34.2°F1.2°C 76% 21.3 mph W34.3 kmh W 37.4 mph60.2 kmh 29.98 in1015.2 mb 0.00 in0.0 mm 0.00 in/hr0.0 mm/hr 0.00 in0.0 mm
11:45 AM 41.7°F5.4°C 34.4°F1.3°C 75% 22.1 mph W35.6 kmh W 34.2 mph55.0 kmh 29.98 in1015.2 mb 0.00 in0.0 mm 0.00 in/hr0.0 mm/hr 0.00 in0.0 mm
12:00 PM 42.1°F5.6°C 34.4°F1.3°C 74% 22.8 mph W36.7 kmh W 34.9 mph56.2 kmh 29.99 in1015.6 mb 0.00 in0.0 mm 0.00 in/hr0.0 mm/hr 0.00 in0.0 mm
12:15 PM 42.3°F5.7°C 34.2°F1.2°C 73% 18.3 mph W29.5 kmh W 33.6 mph54.1 kmh 30.00 in1015.9 mb 0.00 in0.0 mm 0.00 in/hr0.0 mm/hr 0.00 in0.0 mm
12:30 PM 42.4°F5.8°C 33.0°F0.6°C 69% 22.8 mph W36.7 kmh W 34.2 mph55.0 kmh 30.02 in1016.6 mb 0.00 in0.0 mm 0.00 in/hr0.0 mm/hr 0.00 in0.0 mm
12:45 PM 42.6°F5.9°C 32.8°F0.4°C 68% 18.3 mph W29.5 kmh W 39.6 mph63.7 kmh 30.02 in1016.6 mb 0.00 in0.0 mm 0.00 in/hr0.0 mm/hr 0.00 in0.0 mm
01:00 PM 43.5°F6.4°C 31.8°F-0.1°C 63% 24.4 mph W39.3 kmh W 32.0 mph51.5 kmh 30.03 in1016.9 mb 0.00 in0.0 mm 0.00 in/hr0.0 mm/hr 0.00 in0.0 mm
01:15 PM 43.5°F6.4°C 31.4°F-0.3°C 62% 19.7 mph W31.7 kmh W 30.4 mph48.9 kmh 30.04 in1017.3 mb 0.00 in0.0 mm 0.00 in/hr0.0 mm/hr 0.00 in0.0 mm
01:30 PM 43.2°F6.2°C 31.4°F-0.3°C 63% 17.4 mph W28.0 kmh W 32.0 mph51.5 kmh 30.04 in1017.3 mb 0.00 in0.0 mm 0.00 in/hr0.0 mm/hr 0.00 in0.0 mm
01:45 PM 43.9°F6.6°C 32.1°F0.1°C 63% 15.2 mph W24.5 kmh W 28.9 mph46.5 kmh 30.05 in1017.6 mb 0.00 in0.0 mm 0.00 in/hr0.0 mm/hr 0.00 in0.0 mm
02:00 PM 43.9°F6.6°C 30.9°F-0.6°C 60% 13.6 mph W21.9 kmh W 25.9 mph41.7 kmh 30.05 in1017.6 mb 0.00 in0.0 mm 0.00 in/hr0.0 mm/hr 0.00 in0.0 mm
02:15 PM 42.3°F5.7°C 32.5°F0.3°C 68% 8.3 mph WNW13.4 kmh WNW 27.3 mph43.9 kmh 30.06 in1017.9 mb 0.00 in0.0 mm 0.00 in/hr0.0 mm/hr 0.00 in0.0 mm
02:30 PM 41.7°F5.4°C 32.0°F0.0°C 68% 10.7 mph W17.2 kmh W 22.8 mph36.7 kmh 30.07 in1018.3 mb 0.00 in0.0 mm 0.00 in/hr0.0 mm/hr 0.00 in0.0 mm
02:45 PM 43.3°F6.3°C 33.9°F1.1°C 69% 3.1 mph WSW5.0 kmh WSW 13.6 mph21.9 kmh 30.08 in1018.6 mb 0.00 in0.0 mm 0.00 in/hr0.0 mm/hr 0.00 in0.0 mm
03:00 PM 43.2°F6.2°C 31.8°F-0.1°C 64% 6.9 mph W11.1 kmh W 22.1 mph35.6 kmh 30.08 in1018.6 mb 0.00 in0.0 mm 0.00 in/hr0.0 mm/hr 0.00 in0.0 mm
03:15 PM 44.8°F7.1°C 32.2°F0.1°C 61% 8.3 mph W13.4 kmh W 17.4 mph28.0 kmh 30.08 in1018.6 mb 0.00 in0.0 mm 0.00 in/hr0.0 mm/hr 0.00 in0.0 mm
03:30 PM 45.0°F7.2°C 31.9°F-0.1°C 60% 8.3 mph W13.4 kmh W 18.3 mph29.5 kmh 30.08 in1018.6 mb 0.00 in0.0 mm 0.00 in/hr0.0 mm/hr 0.00 in0.0 mm
03:45 PM 43.2°F6.2°C 31.0°F-0.6°C 62% 9.8 mph W15.8 kmh W 19.0 mph30.6 kmh 30.09 in1019.0 mb 0.00 in0.0 mm 0.00 in/hr0.0 mm/hr 0.00 in0.0 mm
04:00 PM 43.9°F6.6°C 32.1°F0.1°C 63% 3.8 mph W6.1 kmh W 19.0 mph30.6 kmh 30.09 in1019.0 mb 0.00 in0.0 mm 0.00 in/hr0.0 mm/hr 0.00 in0.0 mm
04:15 PM 42.6°F5.9°C 31.7°F-0.2°C 65% 3.8 mph W6.1 kmh W 19.7 mph31.7 kmh 30.09 in1019.0 mb 0.00 in0.0 mm 0.00 in/hr0.0 mm/hr 0.00 in0.0 mm
04:30 PM 41.5°F5.3°C 33.2°F0.7°C 72% 6.9 mph SW11.1 kmh SW 25.9 mph41.7 kmh 30.10 in1019.3 mb 0.00 in0.0 mm 0.00 in/hr0.0 mm/hr 0.00 in0.0 mm
04:45 PM 39.6°F4.2°C 34.2°F1.2°C 81% 3.1 mph WSW5.0 kmh WSW 19.0 mph30.6 kmh 30.10 in1019.3 mb 0.00 in0.0 mm 0.00 in/hr0.0 mm/hr 0.00 in0.0 mm
05:00 PM 41.0°F5.0°C 34.4°F1.3°C 77% 2.2 mph WSW3.5 kmh WSW 11.4 mph18.3 kmh 30.10 in1019.3 mb 0.00 in0.0 mm 0.00 in/hr0.0 mm/hr 0.00 in0.0 mm
05:15 PM 40.8°F4.9°C 33.9°F1.1°C 76% 2.2 mph W3.5 kmh W 16.8 mph27.0 kmh 30.10 in1019.3 mb 0.00 in0.0 mm 0.00 in/hr0.0 mm/hr 0.00 in0.0 mm
05:30 PM 40.3°F4.6°C 33.7°F0.9°C 77% Calm Calm 7.6 mph12.2 kmh 30.10 in1019.3 mb 0.00 in0.0 mm 0.00 in/hr0.0 mm/hr 0.00 in0.0 mm
05:45 PM 40.1°F4.5°C 32.5°F0.3°C 74% Calm Calm 5.4 mph8.7 kmh 30.11 in1019.6 mb 0.00 in0.0 mm 0.00 in/hr0.0 mm/hr 0.00 in0.0 mm
06:00 PM 39.6°F4.2°C 33.0°F0.6°C 77% Calm Calm 4.5 mph7.2 kmh 30.12 in1020.0 mb 0.00 in0.0 mm 0.00 in/hr0.0 mm/hr 0.00 in0.0 mm
06:15 PM 39.7°F4.3°C 32.8°F0.4°C 76% Calm Calm 6.9 mph11.1 kmh 30.12 in1020.0 mb 0.00 in0.0 mm 0.00 in/hr0.0 mm/hr 0.00 in0.0 mm
06:30 PM 39.4°F4.1°C 33.1°F0.6°C 78% Calm Calm 0.7 mph1.1 kmh 30.11 in1019.6 mb 0.00 in0.0 mm 0.00 in/hr0.0 mm/hr 0.00 in0.0 mm
06:45 PM 39.7°F4.3°C 34.1°F1.2°C 80% 0.7 mph S1.1 kmh S 6.9 mph11.1 kmh 30.11 in1019.6 mb 0.00 in0.0 mm 0.00 in/hr0.0 mm/hr 0.00 in0.0 mm
07:00 PM 39.4°F4.1°C 34.0°F1.1°C 81% Calm Calm 3.1 mph5.0 kmh 30.12 in1020.0 mb 0.00 in0.0 mm 0.00 in/hr0.0 mm/hr 0.00 in0.0 mm
07:15 PM 38.8°F3.8°C 33.5°F0.8°C 81% Calm Calm 5.4 mph8.7 kmh 30.12 in1020.0 mb 0.00 in0.0 mm 0.00 in/hr0.0 mm/hr 0.00 in0.0 mm
07:30 PM 38.7°F3.7°C 34.3°F1.3°C 84% Calm Calm 1.6 mph2.6 kmh 30.12 in1020.0 mb 0.00 in0.0 mm 0.00 in/hr0.0 mm/hr 0.00 in0.0 mm
07:45 PM 39.0°F3.9°C 35.5°F1.9°C 87% Calm Calm 9.2 mph14.8 kmh 30.13 in1020.3 mb 0.00 in0.0 mm 0.00 in/hr0.0 mm/hr 0.00 in0.0 mm
08:00 PM 38.7°F3.7°C 35.7°F2.1°C 89% Calm Calm 9.2 mph14.8 kmh 30.14 in1020.7 mb 0.00 in0.0 mm 0.00 in/hr0.0 mm/hr 0.00 in0.0 mm
08:15 PM 38.7°F3.7°C 36.5°F2.5°C 92% Calm Calm 13.6 mph21.9 kmh 30.14 in1020.7 mb 0.00 in0.0 mm 0.00 in/hr0.0 mm/hr 0.00 in0.0 mm
08:30 PM 38.5°F3.6°C 36.9°F2.7°C 94% Calm Calm 4.5 mph7.2 kmh 30.14 in1020.7 mb 0.00 in0.0 mm 0.00 in/hr0.0 mm/hr 0.00 in0.0 mm
08:45 PM 38.3°F3.5°C 37.5°F3.1°C 97% Calm Calm 8.3 mph13.4 kmh 30.14 in1020.7 mb 0.00 in0.0 mm 0.00 in/hr0.0 mm/hr 0.00 in0.0 mm
09:00 PM 37.4°F3.0°C 37.1°F2.8°C 99% Calm Calm 6.0 mph9.7 kmh 30.15 in1021.0 mb 0.00 in0.0 mm 0.00 in/hr0.0 mm/hr 0.00 in0.0 mm
09:15 PM 37.2°F2.9°C 37.0°F2.8°C 99% Calm Calm 13.0 mph20.9 kmh 30.14 in1020.7 mb 0.00 in0.0 mm 0.00 in/hr0.0 mm/hr 0.00 in0.0 mm
09:30 PM 37.4°F3.0°C 37.1°F2.8°C 99% 3.1 mph SW5.0 kmh SW 14.5 mph23.3 kmh 30.15 in1021.0 mb 0.00 in0.0 mm 0.00 in/hr0.0 mm/hr 0.00 in0.0 mm
09:45 PM 37.2°F2.9°C 37.0°F2.8°C 99% 2.2 mph SW3.5 kmh SW 14.5 mph23.3 kmh 30.15 in1021.0 mb 0.00 in0.0 mm 0.00 in/hr0.0 mm/hr 0.00 in0.0 mm
10:00 PM 36.9°F2.7°C 36.6°F2.6°C 99% 0.7 mph SW1.1 kmh SW 11.4 mph18.3 kmh 30.15 in1021.0 mb 0.00 in0.0 mm 0.00 in/hr0.0 mm/hr 0.00 in0.0 mm
10:15 PM 36.7°F2.6°C 36.4°F2.4°C 99% 2.2 mph SW3.5 kmh SW 11.4 mph18.3 kmh 30.15 in1021.0 mb 0.00 in0.0 mm 0.00 in/hr0.0 mm/hr 0.00 in0.0 mm
10:30 PM 36.7°F2.6°C 36.4°F2.4°C 99% 0.7 mph SW1.1 kmh SW 9.2 mph14.8 kmh 30.16 in1021.3 mb 0.00 in0.0 mm 0.00 in/hr0.0 mm/hr 0.00 in0.0 mm
10:45 PM 36.5°F2.5°C 36.2°F2.3°C 99% Calm Calm 8.3 mph13.4 kmh 30.15 in1021.0 mb 0.00 in0.0 mm 0.00 in/hr0.0 mm/hr 0.00 in0.0 mm
11:00 PM 36.3°F2.4°C 36.1°F2.3°C 99% Calm Calm 1.6 mph2.6 kmh 30.16 in1021.3 mb 0.00 in0.0 mm 0.00 in/hr0.0 mm/hr 0.00 in0.0 mm
11:15 PM 36.1°F2.3°C 35.9°F2.2°C 99% Calm Calm 3.1 mph5.0 kmh 30.16 in1021.3 mb 0.00 in0.0 mm 0.00 in/hr0.0 mm/hr 0.00 in0.0 mm
11:30 PM 36.5°F2.5°C 36.2°F2.3°C 99% Calm Calm 3.8 mph6.1 kmh 30.16 in1021.3 mb 0.00 in0.0 mm 0.00 in/hr0.0 mm/hr 0.00 in0.0 mm
11:45 PM 36.7°F2.6°C 36.4°F2.4°C 99% Calm Calm 3.1 mph5.0 kmh 30.16 in1021.3 mb 0.00 in0.0 mm 0.00 in/hr0.0 mm/hr 0.00 in0.0 mm